createdAt,value
2022-09-05T00:00:47.926Z,96553
2022-09-05T00:01:47.944Z,96551
2022-09-05T00:02:48.849Z,96551
2022-09-05T00:03:48.008Z,96553
2022-09-05T00:04:47.916Z,96549
2022-09-05T00:06:01.742Z,96552
2022-09-05T00:06:47.931Z,96551
2022-09-05T00:08:47.940Z,96550
2022-09-05T00:09:47.930Z,96548
2022-09-05T00:10:59.803Z,96548
2022-09-05T00:11:47.957Z,96548
2022-09-05T00:13:47.951Z,96547
2022-09-05T00:15:16.423Z,96546
2022-09-05T00:15:48.029Z,96546
2022-09-05T00:19:10.673Z,96544
2022-09-05T00:24:25.691Z,96542
2022-09-05T00:24:29.813Z,96536
2022-09-05T00:24:34.937Z,96536
2022-09-05T00:24:35.235Z,96542
2022-09-05T00:25:06.854Z,96534
2022-09-05T00:25:47.989Z,96531
2022-09-05T00:26:50.474Z,96531
2022-09-05T00:27:48.012Z,96532
2022-09-05T00:28:47.992Z,96533
2022-09-05T00:31:05.654Z,96533
2022-09-05T00:31:50.833Z,96533
2022-09-05T00:31:55.672Z,96532
2022-09-05T00:32:48.061Z,96532
2022-09-05T00:34:48.470Z,96531
2022-09-05T00:35:48.002Z,96531
2022-09-05T00:36:48.008Z,96527
2022-09-05T00:37:48.006Z,96529
2022-09-05T00:38:48.013Z,96529
2022-09-05T00:39:48.050Z,96529
2022-09-05T00:40:48.027Z,96527
2022-09-05T00:41:48.004Z,96527
2022-09-05T00:42:48.035Z,96529
2022-09-05T00:45:48.023Z,96529
2022-09-05T00:47:48.370Z,96527
2022-09-05T00:49:48.049Z,96527
2022-09-05T00:51:48.050Z,96527
2022-09-05T00:53:07.005Z,96529
2022-09-05T00:53:48.033Z,96530
2022-09-05T00:55:48.047Z,96528
2022-09-05T00:57:48.066Z,96531
2022-09-05T00:58:48.054Z,96527
2022-09-05T00:59:50.862Z,96528
2022-09-05T01:00:48.070Z,96529
2022-09-05T01:01:48.189Z,96529
2022-09-05T01:02:51.936Z,96526
2022-09-05T01:03:48.089Z,96527
2022-09-05T01:05:48.101Z,96532
2022-09-05T01:06:48.101Z,96534
2022-09-05T01:07:48.087Z,96534
2022-09-05T01:08:48.091Z,96535
2022-09-05T01:09:48.083Z,96535
2022-09-05T01:10:48.093Z,96535
2022-09-05T01:11:48.117Z,96537
2022-09-05T01:12:52.681Z,96538
2022-09-05T01:13:48.094Z,96535
2022-09-05T01:15:48.141Z,96540
2022-09-05T01:16:48.101Z,96535
2022-09-05T01:17:48.387Z,96543
2022-09-05T01:18:48.111Z,96546
2022-09-05T01:20:48.133Z,96543
2022-09-05T01:21:48.226Z,96543
2022-09-05T01:22:48.150Z,96541
2022-09-05T01:25:54.781Z,96540
2022-09-05T01:26:48.139Z,96540
2022-09-05T01:29:14.500Z,96540
2022-09-05T01:29:16.984Z,96539
2022-09-05T01:29:48.150Z,96540
2022-09-05T01:30:48.198Z,96539
2022-09-05T01:31:48.148Z,96539
2022-09-05T01:33:48.156Z,96535
2022-09-05T01:35:52.302Z,96534
2022-09-05T01:36:48.156Z,96533
2022-09-05T01:37:48.172Z,96533
2022-09-05T01:38:55.356Z,96533
2022-09-05T01:40:04.469Z,96534
2022-09-05T01:40:48.326Z,96539
2022-09-05T01:41:48.165Z,96539
2022-09-05T01:42:48.172Z,96534
2022-09-05T01:43:48.172Z,96533
2022-09-05T01:44:48.175Z,96531
2022-09-05T01:45:49.345Z,96529
2022-09-05T01:46:48.191Z,96532
2022-09-05T01:47:48.199Z,96531
2022-09-05T01:48:48.194Z,96534
2022-09-05T01:49:48.213Z,96529
2022-09-05T01:51:48.205Z,96529
2022-09-05T01:52:59.400Z,96528
2022-09-05T01:53:48.205Z,96529
2022-09-05T01:54:48.222Z,96523
2022-09-05T01:56:04.421Z,96523
2022-09-05T01:56:48.224Z,96526
2022-09-05T01:57:48.221Z,96526
2022-09-05T01:58:48.242Z,96528
2022-09-05T01:59:48.236Z,96527
2022-09-05T02:00:48.216Z,96525
2022-09-05T02:01:48.256Z,96525
2022-09-05T02:02:50.670Z,96521
2022-09-05T02:03:48.236Z,96520
2022-09-05T02:05:49.675Z,96518
2022-09-05T02:08:48.244Z,96520
2022-09-05T02:09:48.247Z,96519
2022-09-05T02:10:48.256Z,96518
2022-09-05T02:11:48.253Z,96519
2022-09-05T02:13:48.244Z,96517
2022-09-05T02:14:48.275Z,96519
2022-09-05T02:15:59.063Z,96517
2022-09-05T02:16:48.267Z,96517
2022-09-05T02:17:50.784Z,96514
2022-09-05T02:18:48.273Z,96514
2022-09-05T02:20:48.287Z,96514
2022-09-05T02:22:48.276Z,96512
2022-09-05T02:24:48.284Z,96513
2022-09-05T02:26:02.665Z,96511
2022-09-05T02:26:48.302Z,96515
2022-09-05T02:28:48.281Z,96515
2022-09-05T02:29:48.321Z,96515
2022-09-05T02:31:48.375Z,96512
2022-09-05T02:32:48.313Z,96517
2022-09-05T02:33:48.301Z,96513
2022-09-05T02:43:55.598Z,96512
2022-09-05T02:45:06.290Z,96508
2022-09-05T02:45:07.591Z,96508
2022-09-05T02:45:13.413Z,96507
2022-09-05T02:45:14.077Z,96507
2022-09-05T02:45:48.464Z,96508
2022-09-05T02:48:48.347Z,96508
2022-09-05T02:51:30.902Z,96502
2022-09-05T02:57:24.948Z,96501
2022-09-05T02:57:30.501Z,96501
2022-09-05T02:57:36.693Z,96499
2022-09-05T02:57:39.470Z,96499
2022-09-05T02:58:06.156Z,96500
2022-09-05T02:59:09.179Z,96500
2022-09-05T02:59:48.365Z,96502
2022-09-05T03:01:48.423Z,96498
2022-09-05T03:02:48.426Z,96499
2022-09-05T03:03:48.397Z,96499
2022-09-05T03:04:48.399Z,96494
2022-09-05T03:06:48.397Z,96498
2022-09-05T03:07:48.393Z,96498
2022-09-05T03:08:48.404Z,96498
2022-09-05T03:09:48.418Z,96498
2022-09-05T03:10:54.602Z,96503
2022-09-05T03:11:48.443Z,96499
2022-09-05T03:12:48.398Z,96499
2022-09-05T03:13:54.648Z,96497
2022-09-05T03:14:48.407Z,96497
2022-09-05T03:15:48.442Z,96499
2022-09-05T03:16:48.442Z,96500
2022-09-05T03:18:48.448Z,96501
2022-09-05T03:19:48.428Z,96502
2022-09-05T03:20:48.424Z,96508
2022-09-05T03:21:48.468Z,96504
2022-09-05T03:22:48.444Z,96506
2022-09-05T03:23:48.437Z,96509
2022-09-05T03:24:55.577Z,96506
2022-09-05T03:25:48.455Z,96511
2022-09-05T03:26:48.442Z,96511
2022-09-05T03:27:48.444Z,96509
2022-09-05T03:31:48.477Z,96511
2022-09-05T03:33:48.473Z,96508
2022-09-05T03:34:48.449Z,96510
2022-09-05T03:35:48.488Z,96510
2022-09-05T03:36:48.464Z,96506
2022-09-05T03:39:48.516Z,96506
2022-09-05T03:40:48.473Z,96501
2022-09-05T03:41:48.485Z,96506
2022-09-05T03:42:48.475Z,96502
2022-09-05T03:43:48.477Z,96502
2022-09-05T03:47:48.510Z,96504
2022-09-05T03:48:48.506Z,96502
2022-09-05T03:53:11.471Z,96499
2022-09-05T03:55:44.049Z,96503
2022-09-05T03:57:06.386Z,96500
2022-09-05T03:57:19.611Z,96506
2022-09-05T03:57:23.589Z,96510
2022-09-05T03:57:27.026Z,96506
2022-09-05T03:57:27.284Z,96505
2022-09-05T03:57:48.535Z,96508
2022-09-05T03:58:57.026Z,96508
2022-09-05T03:59:48.542Z,96506
2022-09-05T04:00:48.528Z,96506
2022-09-05T04:03:15.855Z,96511
2022-09-05T04:08:08.220Z,96510
2022-09-05T04:08:09.333Z,96515
2022-09-05T04:08:17.690Z,96512
2022-09-05T04:08:23.603Z,96512
2022-09-05T04:08:24.512Z,96512
2022-09-05T04:08:48.901Z,96516
2022-09-05T04:11:48.586Z,96516
2022-09-05T04:12:48.546Z,96516
2022-09-05T04:13:48.553Z,96520
2022-09-05T04:14:48.573Z,96520
2022-09-05T04:17:48.600Z,96520
2022-09-05T04:18:48.572Z,96520
2022-09-05T04:19:49.871Z,96523
2022-09-05T04:21:48.581Z,96526
2022-09-05T04:23:48.591Z,96526
2022-09-05T04:24:48.601Z,96526
2022-09-05T04:25:48.612Z,96526
2022-09-05T04:27:48.603Z,96533
2022-09-05T04:28:53.328Z,96533
2022-09-05T04:30:48.620Z,96536
2022-09-05T04:31:51.995Z,96536
2022-09-05T04:32:51.858Z,96532
2022-09-05T04:33:48.603Z,96532
2022-09-05T04:34:49.863Z,96532
2022-09-05T04:35:48.606Z,96537
2022-09-05T04:36:48.617Z,96538
2022-09-05T04:37:49.372Z,96537
2022-09-05T04:38:48.625Z,96539
2022-09-05T04:39:48.710Z,96539
2022-09-05T04:40:48.629Z,96538
2022-09-05T04:41:48.627Z,96535
2022-09-05T04:42:48.637Z,96541
2022-09-05T04:43:48.657Z,96538
2022-09-05T04:44:48.628Z,96535
2022-09-05T04:45:48.685Z,96541
2022-09-05T04:46:49.126Z,96544
2022-09-05T04:47:48.642Z,96545
2022-09-05T04:49:48.660Z,96548
2022-09-05T04:50:48.648Z,96548
2022-09-05T04:52:48.666Z,96553
2022-09-05T04:54:48.656Z,96554
2022-09-05T04:55:50.984Z,96552
2022-09-05T04:57:48.682Z,96560
2022-09-05T05:06:02.310Z,96563
2022-09-05T05:06:04.606Z,96567
2022-09-05T05:06:15.487Z,96567
2022-09-05T05:06:17.339Z,96567
2022-09-05T05:06:18.350Z,96570
2022-09-05T05:09:54.973Z,96575
2022-09-05T05:15:55.257Z,96578
2022-09-05T05:18:08.631Z,96589
2022-09-05T05:18:11.815Z,96581
2022-09-05T05:18:14.228Z,96583
2022-09-05T05:18:15.332Z,96581
2022-09-05T05:18:59.500Z,96592
2022-09-05T05:19:59.368Z,96592
2022-09-05T05:20:48.802Z,96595
2022-09-05T05:21:48.726Z,96595
2022-09-05T05:22:48.743Z,96599
2022-09-05T05:23:48.735Z,96597
2022-09-05T05:24:48.753Z,96597
2022-09-05T05:25:48.746Z,96598
2022-09-05T05:26:48.743Z,96597
2022-09-05T05:27:48.752Z,96597
2022-09-05T05:28:48.749Z,96598
2022-09-05T05:32:48.757Z,96599
2022-09-05T05:33:48.758Z,96599
2022-09-05T05:34:48.756Z,96596
2022-09-05T05:36:48.773Z,96598
2022-09-05T05:37:48.780Z,96601
2022-09-05T05:39:48.872Z,96601
2022-09-05T05:40:50.778Z,96603
2022-09-05T05:41:48.788Z,96604
2022-09-05T05:42:48.822Z,96605
2022-09-05T05:43:48.792Z,96610
2022-09-05T05:44:48.793Z,96609
2022-09-05T05:45:48.836Z,96611
2022-09-05T05:46:48.791Z,96614
2022-09-05T05:47:48.794Z,96617
2022-09-05T05:48:51.800Z,96617
2022-09-05T05:49:48.833Z,96613
2022-09-05T05:50:48.801Z,96615
2022-09-05T05:52:01.417Z,96611
2022-09-05T05:52:48.831Z,96612
2022-09-05T05:53:52.178Z,96614
2022-09-05T05:54:48.812Z,96612
2022-09-05T05:55:51.886Z,96618
2022-09-05T05:56:48.835Z,96620
2022-09-05T05:57:48.851Z,96620
2022-09-05T05:58:48.847Z,96624
2022-09-05T05:59:56.741Z,96625
2022-09-05T06:00:52.089Z,96626
2022-09-05T06:01:49.002Z,96624
2022-09-05T06:04:48.853Z,96633
2022-09-05T06:05:48.846Z,96636
2022-09-05T06:06:48.865Z,96640
2022-09-05T06:10:22.715Z,96640
2022-09-05T06:12:48.741Z,96639
2022-09-05T06:14:51.011Z,96641
2022-09-05T06:14:57.249Z,96641
2022-09-05T06:15:06.636Z,96638
2022-09-05T06:15:08.845Z,96640
2022-09-05T06:15:48.867Z,96638
2022-09-05T06:16:48.934Z,96635
2022-09-05T06:17:48.869Z,96637
2022-09-05T06:18:48.878Z,96639
2022-09-05T06:21:16.204Z,96636
2022-09-05T06:22:07.380Z,96636
2022-09-05T06:22:09.974Z,96635
2022-09-05T06:22:48.896Z,96635
2022-09-05T06:23:48.888Z,96634
2022-09-05T06:24:48.911Z,96634
2022-09-05T06:25:48.910Z,96637
2022-09-05T06:26:48.910Z,96641
2022-09-05T06:28:18.056Z,96640
2022-09-05T06:28:48.924Z,96643
2022-09-05T06:29:48.909Z,96647
2022-09-05T06:30:48.898Z,96647
2022-09-05T06:31:48.953Z,96640
2022-09-05T06:32:58.416Z,96644
2022-09-05T06:33:48.918Z,96644
2022-09-05T06:34:48.920Z,96642
2022-09-05T06:35:49.183Z,96640
2022-09-05T06:36:48.915Z,96633
2022-09-05T06:37:48.938Z,96633
2022-09-05T06:38:48.934Z,96636
2022-09-05T06:39:48.932Z,96632
2022-09-05T06:40:48.934Z,96632
2022-09-05T06:41:48.939Z,96637
2022-09-05T06:42:48.931Z,96636
2022-09-05T06:43:48.944Z,96639
2022-09-05T06:44:48.958Z,96636
2022-09-05T06:45:48.974Z,96636
2022-09-05T06:47:05.793Z,96635
2022-09-05T06:47:56.719Z,96635
2022-09-05T06:49:29.861Z,96634
2022-09-05T06:49:48.992Z,96633
2022-09-05T06:51:07.351Z,96634
2022-09-05T06:51:48.953Z,96634
2022-09-05T06:52:48.966Z,96630
2022-09-05T06:53:48.984Z,96626
2022-09-05T06:54:59.634Z,96629
2022-09-05T06:55:48.969Z,96631
2022-09-05T06:56:48.980Z,96631
2022-09-05T06:57:48.987Z,96635
2022-09-05T06:58:48.985Z,96634
2022-09-05T06:59:48.999Z,96639
2022-09-05T07:00:49.057Z,96639
2022-09-05T07:02:00.237Z,96643
2022-09-05T07:02:59.232Z,96643
2022-09-05T07:03:52.047Z,96640
2022-09-05T07:05:24.397Z,96640
2022-09-05T07:05:49.048Z,96639
2022-09-05T07:07:01.968Z,96640
2022-09-05T07:07:48.993Z,96640
2022-09-05T07:08:49.019Z,96636
2022-09-05T07:09:49.024Z,96638
2022-09-05T07:10:49.022Z,96638
2022-09-05T07:11:49.034Z,96637
2022-09-05T07:12:49.005Z,96637
2022-09-05T07:13:49.023Z,96640
2022-09-05T07:14:49.028Z,96639
2022-09-05T07:15:49.036Z,96639
2022-09-05T07:16:49.071Z,96641
2022-09-05T07:18:49.039Z,96641
2022-09-05T07:19:49.029Z,96641
2022-09-05T07:21:18.182Z,96642
2022-09-05T07:21:49.057Z,96642
2022-09-05T07:22:49.435Z,96643
2022-09-05T07:24:09.505Z,96645
2022-09-05T07:24:55.071Z,96645
2022-09-05T07:25:49.079Z,96645
2022-09-05T07:26:51.731Z,96648
2022-09-05T07:28:25.986Z,96652
2022-09-05T07:28:49.066Z,96650
2022-09-05T07:29:49.047Z,96650
2022-09-05T07:30:49.076Z,96655
2022-09-05T07:31:49.151Z,96655
2022-09-05T07:32:49.077Z,96655
2022-09-05T07:33:49.073Z,96655
2022-09-05T07:34:49.077Z,96659
2022-09-05T07:35:49.079Z,96664
2022-09-05T07:36:49.096Z,96665
2022-09-05T07:37:49.104Z,96662
2022-09-05T07:38:58.655Z,96662
2022-09-05T07:39:49.198Z,96660
2022-09-05T07:40:49.094Z,96660
2022-09-05T07:41:49.098Z,96663
2022-09-05T07:42:51.387Z,96667
2022-09-05T07:43:49.095Z,96667
2022-09-05T07:44:49.133Z,96670
2022-09-05T07:45:56.095Z,96668
2022-09-05T07:46:49.130Z,96668
2022-09-05T07:47:49.121Z,96666
2022-09-05T07:48:49.131Z,96666
2022-09-05T07:50:12.578Z,96664
2022-09-05T07:55:13.810Z,96664
2022-09-05T07:56:49.057Z,96665
2022-09-05T07:56:56.297Z,96666
2022-09-05T07:57:01.708Z,96666
2022-09-05T07:57:04.916Z,96666
2022-09-05T07:57:10.576Z,96666
2022-09-05T07:57:51.893Z,96666
2022-09-05T07:58:49.145Z,96666
2022-09-05T07:59:49.162Z,96670
2022-09-05T08:00:49.199Z,96670
2022-09-05T08:01:49.151Z,96671
2022-09-05T08:02:54.106Z,96671
2022-09-05T08:03:49.177Z,96680
2022-09-05T08:04:49.252Z,96682
2022-09-05T08:05:49.195Z,96683
2022-09-05T08:07:45.783Z,96684
2022-09-05T08:07:51.683Z,96684
2022-09-05T08:09:05.632Z,96684
2022-09-05T08:10:08.173Z,96681
2022-09-05T08:11:24.877Z,96682
2022-09-05T08:11:49.215Z,96682
2022-09-05T08:13:22.692Z,96681
2022-09-05T08:13:49.214Z,96684
2022-09-05T08:14:49.188Z,96684
2022-09-05T08:16:10.024Z,96683
2022-09-05T08:16:49.260Z,96684
2022-09-05T08:17:49.201Z,96684
2022-09-05T08:18:49.206Z,96692
2022-09-05T08:19:49.236Z,96693
2022-09-05T08:20:49.208Z,96693
2022-09-05T08:21:49.231Z,96697
2022-09-05T08:22:52.554Z,96693
2022-09-05T08:23:49.193Z,96693
2022-09-05T08:24:49.255Z,96696
2022-09-05T08:25:57.595Z,96696
2022-09-05T08:26:49.233Z,96694
2022-09-05T08:27:49.226Z,96694
2022-09-05T08:28:49.232Z,96694
2022-09-05T08:29:52.533Z,96694
2022-09-05T08:30:49.243Z,96698
2022-09-05T08:31:49.270Z,96698
2022-09-05T08:32:49.239Z,96695
2022-09-05T08:33:49.235Z,96695
2022-09-05T08:34:49.240Z,96695
2022-09-05T08:35:49.240Z,96695
2022-09-05T08:36:49.265Z,96695
2022-09-05T08:37:49.268Z,96692
2022-09-05T08:38:49.268Z,96695
2022-09-05T08:39:49.351Z,96691
2022-09-05T08:40:49.262Z,96696
2022-09-05T08:41:52.321Z,96693
2022-09-05T08:43:26.499Z,96693
2022-09-05T08:46:10.231Z,96694
2022-09-05T08:46:36.161Z,96693
2022-09-05T08:46:41.283Z,96692
2022-09-05T08:46:50.334Z,96692
2022-09-05T08:47:49.335Z,96691
2022-09-05T08:48:49.317Z,96688
2022-09-05T08:49:49.284Z,96688
2022-09-05T08:50:49.298Z,96687
2022-09-05T08:51:54.464Z,96691
2022-09-05T08:52:49.289Z,96691
2022-09-05T08:53:49.699Z,96688
2022-09-05T08:54:49.311Z,96686
2022-09-05T08:55:49.287Z,96682
2022-09-05T08:56:49.290Z,96683
2022-09-05T08:57:49.289Z,96683
2022-09-05T08:58:49.300Z,96685
2022-09-05T09:00:19.723Z,96685
2022-09-05T09:00:55.599Z,96687
2022-09-05T09:02:45.607Z,96687
2022-09-05T09:02:49.459Z,96686
2022-09-05T09:03:51.774Z,96683
2022-09-05T09:05:02.581Z,96683
2022-09-05T09:06:03.737Z,96686
2022-09-05T09:07:00.819Z,96686
2022-09-05T09:07:51.297Z,96684
2022-09-05T09:08:49.315Z,96688
2022-09-05T09:09:49.368Z,96688
2022-09-05T09:10:49.325Z,96688
2022-09-05T09:11:49.326Z,96685
2022-09-05T09:12:49.338Z,96684
2022-09-05T09:13:49.336Z,96682
2022-09-05T09:14:49.362Z,96685
2022-09-05T09:15:49.399Z,96680
2022-09-05T09:16:49.343Z,96680
2022-09-05T09:17:49.536Z,96680
2022-09-05T09:18:49.350Z,96681
2022-09-05T09:19:49.364Z,96676
2022-09-05T09:20:49.362Z,96674
2022-09-05T09:21:49.363Z,96674
2022-09-05T09:22:49.359Z,96674
2022-09-05T09:24:54.106Z,96671
2022-09-05T09:26:49.416Z,96670
2022-09-05T09:28:51.825Z,96668
2022-09-05T09:29:49.384Z,96672
2022-09-05T09:30:49.377Z,96672
2022-09-05T09:31:49.434Z,96670
2022-09-05T09:33:49.389Z,96663
2022-09-05T09:34:49.585Z,96666
2022-09-05T09:35:49.408Z,96669
2022-09-05T09:36:49.391Z,96669
2022-09-05T09:37:51.168Z,96671
2022-09-05T09:38:49.393Z,96671
2022-09-05T09:39:49.448Z,96666
2022-09-05T09:41:49.408Z,96668
2022-09-05T09:42:49.406Z,96660
2022-09-05T09:44:49.416Z,96660
2022-09-05T09:46:49.518Z,96661
2022-09-05T09:47:49.416Z,96662
2022-09-05T09:48:51.536Z,96662
2022-09-05T09:49:49.433Z,96664
2022-09-05T09:50:58.507Z,96670
2022-09-05T09:51:49.448Z,96667
2022-09-05T09:52:49.437Z,96665
2022-09-05T09:53:49.435Z,96664
2022-09-05T09:54:49.439Z,96663
2022-09-05T09:55:49.461Z,96662
2022-09-05T09:56:49.434Z,96660
2022-09-05T09:57:49.463Z,96660
2022-09-05T09:58:49.457Z,96656
2022-09-05T09:59:54.815Z,96656
2022-09-05T10:01:49.477Z,96658
2022-09-05T10:08:38.027Z,96653
2022-09-05T10:10:36.359Z,96654
2022-09-05T10:10:37.800Z,96654
2022-09-05T10:10:39.095Z,96656
2022-09-05T10:10:49.904Z,96655
2022-09-05T10:10:52.207Z,96651
2022-09-05T10:11:01.343Z,96650
2022-09-05T10:11:55.005Z,96647
2022-09-05T10:12:53.296Z,96651
2022-09-05T10:13:49.515Z,96653
2022-09-05T10:14:51.081Z,96649
2022-09-05T10:15:49.550Z,96649
2022-09-05T10:16:49.515Z,96648
2022-09-05T10:17:49.499Z,96652
2022-09-05T10:18:49.500Z,96647
2022-09-05T10:20:11.243Z,96648
2022-09-05T10:20:53.908Z,96648
2022-09-05T10:22:34.089Z,96647
2022-09-05T10:22:49.514Z,96647
2022-09-05T10:23:49.732Z,96647
2022-09-05T10:24:49.522Z,96646
2022-09-05T10:25:49.548Z,96646
2022-09-05T10:26:49.532Z,96646
2022-09-05T10:27:49.540Z,96646
2022-09-05T10:28:49.538Z,96646
2022-09-05T10:29:49.539Z,96642
2022-09-05T10:31:20.735Z,96637
2022-09-05T10:35:02.858Z,96637
2022-09-05T10:35:08.727Z,96643
2022-09-05T10:35:11.572Z,96636
2022-09-05T10:35:49.616Z,96638
2022-09-05T10:36:49.580Z,96639
2022-09-05T10:37:51.223Z,96633
2022-09-05T10:38:49.558Z,96633
2022-09-05T10:39:49.610Z,96632
2022-09-05T10:41:49.572Z,96630
2022-09-05T10:43:00.939Z,96632
2022-09-05T10:43:49.585Z,96630
2022-09-05T10:44:49.595Z,96630
2022-09-05T10:45:49.587Z,96630
2022-09-05T10:46:51.539Z,96631
2022-09-05T10:47:49.585Z,96629
2022-09-05T10:48:53.093Z,96628
2022-09-05T10:49:49.590Z,96625
2022-09-05T10:50:49.593Z,96628
2022-09-05T10:51:52.035Z,96628
2022-09-05T10:52:49.604Z,96627
2022-09-05T10:53:49.588Z,96618
2022-09-05T10:54:49.588Z,96617
2022-09-05T10:55:52.247Z,96617
2022-09-05T10:56:49.622Z,96615
2022-09-05T10:57:49.637Z,96612
2022-09-05T11:01:59.310Z,96612
2022-09-05T11:02:23.923Z,96612
2022-09-05T11:02:27.589Z,96609
2022-09-05T11:02:27.670Z,96614
2022-09-05T11:02:53.903Z,96606
2022-09-05T11:03:49.644Z,96605
2022-09-05T11:04:50.341Z,96604
2022-09-05T11:05:49.708Z,96605
2022-09-05T11:06:49.654Z,96596
2022-09-05T11:07:49.666Z,96596
2022-09-05T11:08:49.652Z,96591
2022-09-05T11:09:49.648Z,96590
2022-09-05T11:10:49.649Z,96589
2022-09-05T11:11:49.666Z,96584
2022-09-05T11:12:57.207Z,96585
2022-09-05T11:13:49.654Z,96583
2022-09-05T11:14:49.694Z,96583
2022-09-05T11:16:03.870Z,96583
2022-09-05T11:16:49.778Z,96581
2022-09-05T11:17:49.683Z,96583
2022-09-05T11:18:56.175Z,96583
2022-09-05T11:19:49.688Z,96581
2022-09-05T11:20:49.690Z,96581
2022-09-05T11:21:49.689Z,96578
2022-09-05T11:22:49.706Z,96578
2022-09-05T11:23:57.115Z,96579
2022-09-05T11:24:49.702Z,96580
2022-09-05T11:25:49.697Z,96576
2022-09-05T11:26:56.627Z,96572
2022-09-05T11:27:49.741Z,96571
2022-09-05T11:29:00.446Z,96567
2022-09-05T11:29:49.709Z,96572
2022-09-05T11:30:49.741Z,96572
2022-09-05T11:33:03.352Z,96565
2022-09-05T11:39:51.262Z,96566
2022-09-05T11:40:00.422Z,96568
2022-09-05T11:40:03.786Z,96568
2022-09-05T11:40:06.077Z,96566
2022-09-05T11:40:07.230Z,96572
2022-09-05T11:40:25.015Z,96568
2022-09-05T11:41:02.710Z,96568
2022-09-05T11:41:49.790Z,96565
2022-09-05T11:42:49.763Z,96562
2022-09-05T11:43:49.752Z,96559
2022-09-05T11:44:49.739Z,96558
2022-09-05T11:45:49.807Z,96551
2022-09-05T11:46:50.441Z,96554
2022-09-05T11:47:49.746Z,96553
2022-09-05T11:48:53.315Z,96549
2022-09-05T11:49:49.781Z,96550
2022-09-05T11:50:49.752Z,96550
2022-09-05T11:51:49.784Z,96548
2022-09-05T11:52:49.769Z,96549
2022-09-05T11:53:49.767Z,96546
2022-09-05T11:54:49.759Z,96546
2022-09-05T11:55:49.759Z,96543
2022-09-05T11:56:49.770Z,96542
2022-09-05T11:57:49.790Z,96540
2022-09-05T11:58:50.109Z,96544
2022-09-05T11:59:49.806Z,96542
2022-09-05T12:01:49.842Z,96540
2022-09-05T12:03:59.352Z,96537
2022-09-05T12:05:58.601Z,96537
2022-09-05T12:06:49.949Z,96537
2022-09-05T12:07:49.798Z,96535
2022-09-05T12:08:49.827Z,96534
2022-09-05T12:09:50.186Z,96534
2022-09-05T12:11:49.835Z,96530
2022-09-05T12:12:49.801Z,96528
2022-09-05T12:13:51.183Z,96526
2022-09-05T12:14:54.930Z,96529
2022-09-05T12:15:49.829Z,96525
2022-09-05T12:16:49.877Z,96526
2022-09-05T12:17:49.818Z,96524
2022-09-05T12:18:49.857Z,96524
2022-09-05T12:19:49.823Z,96525
2022-09-05T12:20:49.835Z,96524
2022-09-05T12:21:49.820Z,96522
2022-09-05T12:22:49.835Z,96522
2022-09-05T12:24:31.228Z,96520
2022-09-05T12:25:25.516Z,96520
2022-09-05T12:27:40.843Z,96513
2022-09-05T12:27:43.063Z,96520
2022-09-05T12:27:58.581Z,96513
2022-09-05T12:29:26.463Z,96510
2022-09-05T12:29:54.222Z,96509
2022-09-05T12:33:52.270Z,96513
2022-09-05T12:36:01.174Z,96513
2022-09-05T12:36:02.253Z,96508
2022-09-05T12:39:30.254Z,96508
2022-09-05T12:40:54.064Z,96507
2022-09-05T12:40:55.286Z,96504
2022-09-05T12:41:32.095Z,96507
2022-09-05T12:41:39.049Z,96502
2022-09-05T12:41:41.972Z,96510
2022-09-05T12:42:10.851Z,96505
2022-09-05T12:42:15.231Z,96503
2022-09-05T12:43:39.305Z,96503
2022-09-05T12:44:37.818Z,96498
2022-09-05T12:44:50.669Z,96498
2022-09-05T12:45:50.260Z,96498
2022-09-05T12:46:49.932Z,96494
2022-09-05T12:47:49.909Z,96494
2022-09-05T12:48:49.921Z,96498
2022-09-05T12:49:51.889Z,96491
2022-09-05T12:50:49.938Z,96493
2022-09-05T12:51:49.901Z,96487
2022-09-05T12:52:49.948Z,96487
2022-09-05T12:53:49.912Z,96492
2022-09-05T12:54:55.872Z,96486
2022-09-05T12:56:00.489Z,96485
2022-09-05T13:00:56.248Z,96485
2022-09-05T13:02:55.796Z,96482
2022-09-05T13:02:59.071Z,96482
2022-09-05T13:03:01.186Z,96480
2022-09-05T13:03:05.820Z,96485
2022-09-05T13:03:07.415Z,96482
2022-09-05T13:03:11.563Z,96484
2022-09-05T13:04:16.025Z,96483
2022-09-05T13:04:56.222Z,96481
2022-09-05T13:05:50.097Z,96483
2022-09-05T13:07:49.964Z,96477
2022-09-05T13:08:59.756Z,96477
2022-09-05T13:12:07.448Z,96476
2022-09-05T13:14:48.531Z,96476
2022-09-05T13:14:54.034Z,96476
2022-09-05T13:14:56.210Z,96474
2022-09-05T13:15:07.520Z,96476
2022-09-05T13:15:50.095Z,96474
2022-09-05T13:16:49.979Z,96475
2022-09-05T13:17:49.977Z,96475
2022-09-05T13:18:49.999Z,96470
2022-09-05T13:19:49.978Z,96470
2022-09-05T13:20:49.994Z,96469
2022-09-05T13:21:50.046Z,96472
2022-09-05T13:22:50.057Z,96464
2022-09-05T13:23:50.771Z,96464
2022-09-05T13:24:50.040Z,96466
2022-09-05T13:25:50.003Z,96466
2022-09-05T13:26:50.040Z,96468
2022-09-05T13:27:50.048Z,96463
2022-09-05T13:30:40.130Z,96457
2022-09-05T13:36:51.523Z,96458
2022-09-05T13:37:54.020Z,96458
2022-09-05T13:37:59.735Z,96455
2022-09-05T13:38:00.573Z,96453
2022-09-05T13:38:12.077Z,96449
2022-09-05T13:38:12.701Z,96454
2022-09-05T13:38:19.331Z,96454
2022-09-05T13:38:20.784Z,96449
2022-09-05T13:38:50.944Z,96452
2022-09-05T13:39:50.257Z,96451
2022-09-05T13:40:50.263Z,96451
2022-09-05T13:41:50.045Z,96451
2022-09-05T13:42:50.069Z,96451
2022-09-05T13:43:50.076Z,96450
2022-09-05T13:44:50.056Z,96447
2022-09-05T13:45:50.061Z,96446
2022-09-05T13:46:51.851Z,96446
2022-09-05T13:47:50.062Z,96446
2022-09-05T13:49:50.091Z,96437
2022-09-05T13:50:50.065Z,96437
2022-09-05T13:51:50.097Z,96440
2022-09-05T13:52:50.082Z,96440
2022-09-05T13:53:50.101Z,96440
2022-09-05T13:54:51.466Z,96437
2022-09-05T13:55:50.114Z,96438
2022-09-05T13:56:50.099Z,96439
2022-09-05T13:57:50.100Z,96439
2022-09-05T13:58:56.459Z,96437
2022-09-05T13:59:50.128Z,96434
2022-09-05T14:00:50.109Z,96434
2022-09-05T14:02:02.958Z,96434
2022-09-05T14:03:50.520Z,96433
2022-09-05T14:05:08.279Z,96433
2022-09-05T14:05:50.158Z,96429
2022-09-05T14:06:50.116Z,96428
2022-09-05T14:07:50.162Z,96430
2022-09-05T14:09:50.144Z,96428
2022-09-05T14:10:50.146Z,96431
2022-09-05T14:11:50.135Z,96428
2022-09-05T14:12:52.747Z,96428
2022-09-05T14:13:50.130Z,96424
2022-09-05T14:15:10.822Z,96421
2022-09-05T14:16:53.678Z,96416
2022-09-05T14:17:51.167Z,96418
2022-09-05T14:18:52.542Z,96416
2022-09-05T14:19:50.152Z,96416
2022-09-05T14:20:50.433Z,96411
2022-09-05T14:21:50.174Z,96411
2022-09-05T14:22:51.351Z,96410
2022-09-05T14:23:50.183Z,96408
2022-09-05T14:24:56.109Z,96410
2022-09-05T14:25:50.171Z,96410
2022-09-05T14:26:51.536Z,96408
2022-09-05T14:27:50.193Z,96408
2022-09-05T14:28:50.163Z,96406
2022-09-05T14:29:52.239Z,96405
2022-09-05T14:32:27.599Z,96402
2022-09-05T14:37:36.230Z,96404
2022-09-05T14:37:40.538Z,96404
2022-09-05T14:37:40.627Z,96395
2022-09-05T14:37:42.301Z,96396
2022-09-05T14:37:50.391Z,96394
2022-09-05T14:37:52.527Z,96395
2022-09-05T14:38:05.659Z,96394
2022-09-05T14:38:51.111Z,96391
2022-09-05T14:39:50.355Z,96391
2022-09-05T14:40:50.278Z,96387
2022-09-05T14:42:09.362Z,96387
2022-09-05T14:42:50.217Z,96387
2022-09-05T14:43:53.579Z,96388
2022-09-05T14:44:50.237Z,96382
2022-09-05T14:45:50.262Z,96382